[2025-03-04 00:00:00, 2025-03-04 23:59:59] previous next
| time | temperature | air pressure | humidity | solar radiation | wind speed |
|---|---|---|---|---|---|
| 2025-03-04 07:08:22 | -0.4 | 1017.8 | 99.0 | 0.0 | 0.0 |
| 2025-03-04 07:33:28 | -0.2 | 1018.1 | 99.0 | 36.6 | 0.0 |
| 2025-03-04 07:53:27 | 0.1 | 1018.5 | 99.0 | 41.9 | 0.0 |
| 2025-03-04 08:13:27 | 2.2 | 1018.1 | 99.0 | 50.0 | 0.0 |
| 2025-03-04 08:33:27 | 4.0 | 1017.8 | 99.0 | 61.7 | 0.0 |
| 2025-03-04 08:53:26 | 5.2 | 1018.1 | 84.0 | 58.7 | 0.0 |
| 2025-03-04 09:13:26 | 8.5 | 1017.8 | 78.0 | 65.6 | 0.0 |
| 2025-03-04 09:33:27 | 8.5 | 1018.1 | 72.0 | 72.9 | 0.0 |
| 2025-03-04 09:53:27 | 9.0 | 1017.8 | 73.0 | 61.4 | 0.0 |
| 2025-03-04 10:13:27 | 9.4 | 1017.8 | 71.0 | 108.0 | 0.4 |
| 2025-03-04 10:33:28 | 10.6 | 1017.8 | 68.0 | 67.0 | 0.0 |
| 2025-03-04 10:53:29 | 9.5 | 1017.8 | 70.0 | 68.1 | 1.7 |
| 2025-03-04 11:13:27 | 10.1 | 1018.1 | 67.0 | 66.2 | 1.4 |
| 2025-03-04 11:33:26 | 10.7 | 1018.1 | 66.0 | 113.8 | 0.4 |
| 2025-03-04 11:53:27 | 11.5 | 1017.8 | 66.0 | 296.3 | 1.1 |
| 2025-03-04 12:13:29 | 11.8 | 1017.8 | 60.0 | 293.4 | 1.7 |
| 2025-03-04 12:33:27 | 12.6 | 1017.4 | 57.0 | 310.1 | 0.3 |
| 2025-03-04 12:53:30 | 13.3 | 1017.4 | 52.0 | 312.4 | 2.1 |
| 2025-03-04 13:13:27 | 13.6 | 1017.4 | 53.0 | 312.2 | 0.4 |
| 2025-03-04 13:33:28 | 14.3 | 1017.4 | 50.0 | 316.8 | 0.1 |
| 2025-03-04 13:53:27 | 14.7 | 1017.4 | 47.0 | 313.4 | 1.7 |
| 2025-03-04 14:13:30 | 16.2 | 1017.4 | 45.0 | 300.8 | 0.0 |
| 2025-03-04 14:33:27 | 14.8 | 1016.8 | 48.0 | 281.5 | 0.8 |
| 2025-03-04 14:53:27 | 16.7 | 1016.8 | 43.0 | 265.4 | 0.3 |
| 2025-03-04 15:13:27 | 17.3 | 1017.1 | 43.0 | 246.3 | 0.0 |
| 2025-03-04 15:33:27 | 14.5 | 1016.8 | 48.0 | 217.3 | 0.0 |
| 2025-03-04 15:53:27 | 14.1 | 1016.4 | 50.0 | 187.9 | 0.0 |
| 2025-03-04 16:14:42 | 13.9 | 1016.1 | 47.0 | 0.0 | 0.0 |
CSV export: /station/IWELLEN5/data?period=20250304T000000/20250304T235959&format=csv&tz=GMT